Susan Miller — WDC6990 — position and weather

sailwx.info

Track history (hours):
 
Tides and Currents Weather Stations Pressure Air Temp Water Temp Dewpoint Dewpoint Depression Visibility Wind Speed Wind Dir Waves Ship Positions

Susan Miller

Owner: Miller's Tug & Barge, Staten Island, NY. More information available from US FCC via Universal Licensing System and Coast Guard Vessel Documentation Center.

Last reported at 2018-Jan-19 04:23 UTC. Time now 2018-Jan-23 20:20 UTC.
Position N 40°48' W 073°47'.

Length 20 m; draft 3 m.

Type: Tug. MMSI: 367064470.

Date/timePositionNaut miles runAvg speedWind from/ knotsBaromVisibWave heightAir tempDewpointWater temp
2018-Jan-19 04:23N 40°48' W 073°47'2 5.4
2018-Jan-19 04:00N 40°48' W 073°50'3 6.0
2018-Jan-19 03:27N 40°48' W 073°54'3 5.9
2018-Jan-19 03:00N 40°46' W 073°57'2 4.9
2018-Jan-19 02:30N 40°44' W 073°58'2 3.6
2018-Jan-19 01:59N 40°42' W 073°59'2 4.7
2018-Jan-19 01:30N 40°41' W 074°01'2 4.0
2018-Jan-19 01:00N 40°40' W 074°04'0 0.5
2018-Jan-19 00:30N 40°41' W 074°04'0 0.0
2018-Jan-18 23:58N 40°41' W 074°04'0 0.0
2018-Jan-18 23:30N 40°41' W 074°04'2 4.0
2018-Jan-18 22:59N 40°38' W 074°04'0 0.8
2018-Jan-18 22:30N 40°38' W 074°04'0 0.0
2018-Jan-18 22:00N 40°38' W 074°04'0 0.0
2018-Jan-18 21:29N 40°38' W 074°04'0 0.0
2018-Jan-18 21:00N 40°38' W 074°04'0 0.0
2018-Jan-18 20:30N 40°38' W 074°04'0 0.0
2018-Jan-18 19:29N 40°38' W 074°04'0 0.1
2018-Jan-18 19:00N 40°38' W 074°04'0 0.0
2018-Jan-18 18:30N 40°38' W 074°04'0 0.0
2018-Jan-18 17:59N 40°38' W 074°04'0 0.0
2018-Jan-18 17:30N 40°38' W 074°04'0 0.0
2018-Jan-18 17:00N 40°38' W 074°04'0 0.0
2018-Jan-18 16:30N 40°38' W 074°04'0 0.0
2018-Jan-18 16:00N 40°38' W 074°04'2 3.8
2018-Jan-18 15:30N 40°39' W 074°07'0 0.0
2018-Jan-18 14:59N 40°39' W 074°07'0 0.0
2018-Jan-18 14:30N 40°39' W 074°07'0 0.0
2018-Jan-18 14:00N 40°39' W 074°07'0 0.0
2018-Jan-18 13:30N 40°39' W 074°07'2 4.0
2018-Jan-18 13:00N 40°38' W 074°04'  
2018-Jan-12 13:45N 40°37' W 074°12'2 6.7
2018-Jan-12 13:30N 40°39' W 074°11'4 6.8
2018-Jan-12 12:57N 40°39' W 074°06'2 0.1
2018-Jan-11 21:21N 40°38' W 074°04'0 0.5
2018-Jan-11 21:00N 40°38' W 074°04'3 6.6
2018-Jan-11 20:30N 40°41' W 074°02'1 2.3
2018-Jan-11 20:00N 40°42' W 074°01'0 0.9
2018-Jan-11 19:30N 40°42' W 074°01'0 0.9
2018-Jan-11 19:00N 40°42' W 074°01'0 0.9
2018-Jan-11 18:30N 40°42' W 074°01'0 0.9
2018-Jan-11 18:00N 40°42' W 074°01'0 0.9
2018-Jan-11 17:30N 40°42' W 074°01'0 0.6
2018-Jan-11 17:00N 40°42' W 074°01'0 0.6
2018-Jan-11 16:30N 40°42' W 074°01'0 0.9
2018-Jan-11 16:00N 40°42' W 074°01'0 0.9
2018-Jan-11 15:30N 40°42' W 074°01'0 0.8
2018-Jan-11 15:00N 40°42' W 074°01'0 0.4
2018-Jan-11 14:30N 40°42' W 074°01'0 0.5
2018-Jan-11 14:00N 40°42' W 074°01'0 0.7
2018-Jan-11 13:30N 40°42' W 074°01'0 0.7
2018-Jan-11 13:00N 40°42' W 074°01'0 0.0
2018-Jan-11 12:30N 40°42' W 074°01'0 0.3
2018-Jan-11 12:00N 40°42' W 074°01'4 6.9
2018-Jan-11 11:28N 40°39' W 074°04'1 1.1
2018-Jan-11 10:53N 40°38' W 074°04'0 0.0
2018-Jan-10 21:06N 40°38' W 074°04'0 0.1
2018-Jan-10 21:00N 40°38' W 074°04'0 0.0
2018-Jan-10 20:30N 40°38' W 074°04'0 0.0
2018-Jan-10 20:00N 40°38' W 074°04'0 0.0
2018-Jan-10 19:30N 40°38' W 074°04'0 0.0
2018-Jan-10 19:00N 40°38' W 074°04'0 0.0
2018-Jan-10 18:30N 40°38' W 074°04'0 0.0
2018-Jan-10 18:00N 40°38' W 074°04'0 0.0
2018-Jan-10 17:29N 40°38' W 074°04'0 0.4
2018-Jan-10 16:54N 40°38' W 074°04'1 0.3
2018-Jan-10 14:01N 40°39' W 074°05'0 9.4
2018-Jan-10 14:00N 40°39' W 074°04'1 0.7
2018-Jan-10 12:33N 40°38' W 074°04'0 0.3
2018-Jan-10 12:22N 40°38' W 074°04'0 0.0
2018-Jan-09 20:02N 40°38' W 074°04'0 0.3
2018-Jan-09 20:00N 40°38' W 074°04'1 0.1
2018-Jan-09 11:16N 40°39' W 074°06'  
Track history (hours):
 
Tides and Currents Weather Stations Pressure Air Temp Water Temp Dewpoint Dewpoint Depression Visibility Wind Speed Wind Dir Waves Ship Positions

Susan Miller

Owner: Miller's Tug & Barge, Staten Island, NY. More information available from US FCC via Universal Licensing System and Coast Guard Vessel Documentation Center.

Last reported at 2018-Jan-19 04:23 UTC. Time now 2018-Jan-23 20:20 UTC.
Position N 40°48' W 073°47'.

Length 20 m; draft 3 m.

Type: Tug. MMSI: 367064470.

Date/timePositionNaut miles runAvg speedWind from/ knotsBaromVisibWave heightAir tempDewpointWater temp
2018-Jan-19 04:23N 40°48' W 073°47'2 5.4
2018-Jan-19 04:00N 40°48' W 073°50'3 6.0
2018-Jan-19 03:27N 40°48' W 073°54'3 5.9
2018-Jan-19 03:00N 40°46' W 073°57'2 4.9
2018-Jan-19 02:30N 40°44' W 073°58'2 3.6
2018-Jan-19 01:59N 40°42' W 073°59'2 4.7
2018-Jan-19 01:30N 40°41' W 074°01'2 4.0
2018-Jan-19 01:00N 40°40' W 074°04'0 0.5
2018-Jan-19 00:30N 40°41' W 074°04'0 0.0
2018-Jan-18 23:58N 40°41' W 074°04'0 0.0
2018-Jan-18 23:30N 40°41' W 074°04'2 4.0
2018-Jan-18 22:59N 40°38' W 074°04'0 0.8
2018-Jan-18 22:30N 40°38' W 074°04'0 0.0
2018-Jan-18 22:00N 40°38' W 074°04'0 0.0
2018-Jan-18 21:29N 40°38' W 074°04'0 0.0
2018-Jan-18 21:00N 40°38' W 074°04'0 0.0
2018-Jan-18 20:30N 40°38' W 074°04'0 0.0
2018-Jan-18 19:29N 40°38' W 074°04'0 0.1
2018-Jan-18 19:00N 40°38' W 074°04'0 0.0
2018-Jan-18 18:30N 40°38' W 074°04'0 0.0
2018-Jan-18 17:59N 40°38' W 074°04'0 0.0
2018-Jan-18 17:30N 40°38' W 074°04'0 0.0
2018-Jan-18 17:00N 40°38' W 074°04'0 0.0
2018-Jan-18 16:30N 40°38' W 074°04'0 0.0
2018-Jan-18 16:00N 40°38' W 074°04'2 3.8
2018-Jan-18 15:30N 40°39' W 074°07'0 0.0
2018-Jan-18 14:59N 40°39' W 074°07'0 0.0
2018-Jan-18 14:30N 40°39' W 074°07'0 0.0
2018-Jan-18 14:00N 40°39' W 074°07'0 0.0
2018-Jan-18 13:30N 40°39' W 074°07'2 4.0
2018-Jan-18 13:00N 40°38' W 074°04'  
2018-Jan-12 13:45N 40°37' W 074°12'2 6.7
2018-Jan-12 13:30N 40°39' W 074°11'4 6.8
2018-Jan-12 12:57N 40°39' W 074°06'2 0.1
2018-Jan-11 21:21N 40°38' W 074°04'0 0.5
2018-Jan-11 21:00N 40°38' W 074°04'3 6.6
2018-Jan-11 20:30N 40°41' W 074°02'1 2.3
2018-Jan-11 20:00N 40°42' W 074°01'0 0.9
2018-Jan-11 19:30N 40°42' W 074°01'0 0.9
2018-Jan-11 19:00N 40°42' W 074°01'0 0.9
2018-Jan-11 18:30N 40°42' W 074°01'0 0.9
2018-Jan-11 18:00N 40°42' W 074°01'0 0.9
2018-Jan-11 17:30N 40°42' W 074°01'0 0.6
2018-Jan-11 17:00N 40°42' W 074°01'0 0.6
2018-Jan-11 16:30N 40°42' W 074°01'0 0.9
2018-Jan-11 16:00N 40°42' W 074°01'0 0.9
2018-Jan-11 15:30N 40°42' W 074°01'0 0.8
2018-Jan-11 15:00N 40°42' W 074°01'0 0.4
2018-Jan-11 14:30N 40°42' W 074°01'0 0.5
2018-Jan-11 14:00N 40°42' W 074°01'0 0.7
2018-Jan-11 13:30N 40°42' W 074°01'0 0.7
2018-Jan-11 13:00N 40°42' W 074°01'0 0.0
2018-Jan-11 12:30N 40°42' W 074°01'0 0.3
2018-Jan-11 12:00N 40°42' W 074°01'4 6.9
2018-Jan-11 11:28N 40°39' W 074°04'1 1.1
2018-Jan-11 10:53N 40°38' W 074°04'0 0.0
2018-Jan-10 21:06N 40°38' W 074°04'0 0.1
2018-Jan-10 21:00N 40°38' W 074°04'0 0.0
2018-Jan-10 20:30N 40°38' W 074°04'0 0.0
2018-Jan-10 20:00N 40°38' W 074°04'0 0.0
2018-Jan-10 19:30N 40°38' W 074°04'0 0.0
2018-Jan-10 19:00N 40°38' W 074°04'0 0.0
2018-Jan-10 18:30N 40°38' W 074°04'0 0.0
2018-Jan-10 18:00N 40°38' W 074°04'0 0.0
2018-Jan-10 17:29N 40°38' W 074°04'0 0.4
2018-Jan-10 16:54N 40°38' W 074°04'1 0.3
2018-Jan-10 14:01N 40°39' W 074°05'0 9.4
2018-Jan-10 14:00N 40°39' W 074°04'1 0.7
2018-Jan-10 12:33N 40°38' W 074°04'0 0.3
2018-Jan-10 12:22N 40°38' W 074°04'0 0.0
2018-Jan-09 20:02N 40°38' W 074°04'0 0.3
2018-Jan-09 20:00N 40°38' W 074°04'1 0.1
2018-Jan-09 11:16N 40°39' W 074°06'  

Dump ship's entire track history